Daniels, Utah
Current Conditions -  °F | °C
As of 7:55 PM on Tuesday 21 Oct 2014 (Local Time) from K36U Reporting Station
Overcast Overcast  
Wind Chill: 50°   Ceiling: 10000
Heat Index: 50°   Visibility: 10mi
Dew Point: 32°   Wind: 7mph
Humidity: 50%   Direction: 100°E
Pressure: 30.05"   Gusts: NA
Location:  40.2386°N, 111.149°W
Report Text: K36U 220155Z AUTO 10006KT 10SM OVC100 10/00 A3005 RMK AO2 LTG DSNT E AND SE
Loading
Personal Weather Stations






























Interactive Weather Map
Tropical Storm Tracking
New forecast layout! Learn more

10-Day Weather Forecast

Advertisements
Track Severe Weather on mobile